SEMEZ EDAH-ZZZZ
Flight info
| Callsign | SEMEZ |
|---|---|
| Flight time | N/A |
| Altitude | |
| Route | ESSI DCT MOKNI/N0185F040 |
| Aircraft | BE58 |
Departure
| Time | 2026-04-13 15:20 |
|---|---|
| Airport | Heringsdorf Airport (EDAH) |
Arrival
| Time | N/A |
|---|---|
| Airport | ZZZZ |
| Time | Latitude | Longitude | Altitude | Speed | Heading |
|---|---|---|---|---|---|
| 2026-04-13 15:17 | 53.87912 | 14.13903 | 74 ft | 0 kts | 300° |
| 2026-04-13 15:18 | 53.87945 | 14.13890 | 74 ft | 14 kts | 343° |
| 2026-04-13 15:18 | 53.88020 | 14.13709 | 74 ft | 22 kts | 300° |
| 2026-04-13 15:18 | 53.88051 | 14.13615 | 74 ft | 14 kts | 301° |
| 2026-04-13 15:18 | 53.88110 | 14.13458 | 74 ft | 12 kts | 327° |
| 2026-04-13 15:19 | 53.88152 | 14.13530 | 74 ft | 10 kts | 101° |
| 2026-04-13 15:19 | 53.88141 | 14.13586 | 74 ft | 27 kts | 107° |
| 2026-04-13 15:19 | 53.88015 | 14.14367 | 94 ft | 95 kts | 105° |
| 2026-04-13 15:19 | 53.87841 | 14.15632 | 311 ft | 119 kts | 93° |
| 2026-04-13 15:20 | 53.88220 | 14.16787 | 679 ft | 126 kts | 20° |
| 2026-04-13 15:20 | 53.89016 | 14.16281 | 904 ft | 139 kts | 308° |
| 2026-04-13 15:20 | 53.89629 | 14.14894 | 1093 ft | 154 kts | 312° |
| 2026-04-13 15:20 | 53.90522 | 14.13917 | 1343 ft | 156 kts | 336° |
| 2026-04-13 15:21 | 53.91543 | 14.13173 | 1450 ft | 159 kts | 336° |
| 2026-04-13 15:21 | 53.92545 | 14.12419 | 1513 ft | 162 kts | 335° |
| 2026-04-13 15:21 | 53.93582 | 14.11621 | 1549 ft | 165 kts | 335° |
| 2026-04-13 15:21 | 53.94642 | 14.10815 | 1551 ft | 169 kts | 336° |
| 2026-04-13 15:22 | 53.95746 | 14.10013 | 1550 ft | 172 kts | 336° |
| 2026-04-13 15:22 | 53.96838 | 14.09221 | 1550 ft | 173 kts | 336° |
| 2026-04-13 15:22 | 53.97959 | 14.08410 | 1549 ft | 174 kts | 336° |
| 2026-04-13 15:22 | 53.99077 | 14.07594 | 1548 ft | 175 kts | 334° |
| 2026-04-13 15:23 | 54.00138 | 14.06625 | 1549 ft | 175 kts | 329° |
| 2026-04-13 15:23 | 54.01167 | 14.05511 | 1548 ft | 175 kts | 324° |
| 2026-04-13 15:23 | 54.02121 | 14.04244 | 1549 ft | 175 kts | 320° |
| 2026-04-13 15:23 | 54.03068 | 14.02947 | 1548 ft | 175 kts | 319° |
| 2026-04-13 15:24 | 54.03896 | 14.01440 | 1549 ft | 175 kts | 310° |
| 2026-04-13 15:24 | 54.04685 | 13.99860 | 1549 ft | 175 kts | 309° |
| 2026-04-13 15:24 | 54.05466 | 13.98287 | 1549 ft | 175 kts | 308° |
| 2026-04-13 15:24 | 54.06176 | 13.96597 | 1549 ft | 174 kts | 303° |
| 2026-04-13 15:25 | 54.06856 | 13.94906 | 1549 ft | 174 kts | 303° |
| 2026-04-13 15:25 | 54.07539 | 13.93201 | 1549 ft | 174 kts | 303° |
| 2026-04-13 15:25 | 54.08228 | 13.91482 | 1549 ft | 174 kts | 303° |
| 2026-04-13 15:25 | 54.08909 | 13.89774 | 1549 ft | 174 kts | 303° |
| 2026-04-13 15:26 | 54.09595 | 13.88078 | 1530 ft | 172 kts | 306° |
| 2026-04-13 15:26 | 54.10354 | 13.86529 | 1212 ft | 165 kts | 313° |
| 2026-04-13 15:26 | 54.11110 | 13.85232 | 914 ft | 143 kts | 315° |
| 2026-04-13 15:26 | 54.11763 | 13.84134 | 779 ft | 121 kts | 315° |
| 2026-04-13 15:27 | 54.12322 | 13.83236 | 674 ft | 104 kts | 315° |
| 2026-04-13 15:27 | 54.12826 | 13.82390 | 590 ft | 99 kts | 315° |
| 2026-04-13 15:27 | 54.13311 | 13.81574 | 522 ft | 99 kts | 314° |
| 2026-04-13 15:27 | 54.13801 | 13.80768 | 480 ft | 97 kts | 314° |
| 2026-04-13 15:28 | 54.14270 | 13.79974 | 304 ft | 92 kts | 315° |
| 2026-04-13 15:28 | 54.14723 | 13.79219 | 144 ft | 90 kts | 316° |
| 2026-04-13 15:28 | 54.15168 | 13.78487 | 23 ft | 87 kts | 316° |
| 2026-04-13 15:28 | 54.15567 | 13.77833 | 10 ft | 67 kts | 318° |
| 2026-04-13 15:29 | 54.15975 | 13.77164 | 134 ft | 93 kts | 315° |
| 2026-04-13 15:29 | 54.16458 | 13.76272 | 428 ft | 114 kts | 310° |
| 2026-04-13 15:29 | 54.16977 | 13.75174 | 807 ft | 122 kts | 301° |
| 2026-04-13 15:29 | 54.17058 | 13.73810 | 1276 ft | 120 kts | 248° |
| 2026-04-13 15:30 | 54.16487 | 13.72571 | 1319 ft | 150 kts | 225° |
| 2026-04-13 15:30 | 54.15577 | 13.71643 | 1495 ft | 159 kts | 185° |
| 2026-04-13 15:30 | 54.14572 | 13.72336 | 1512 ft | 161 kts | 142° |
| 2026-04-13 15:30 | 54.13781 | 13.73706 | 1498 ft | 164 kts | 129° |
| 2026-04-13 15:31 | 54.13057 | 13.75234 | 1431 ft | 168 kts | 133° |
| 2026-04-13 15:31 | 54.12297 | 13.76675 | 1409 ft | 152 kts | 131° |
| 2026-04-13 15:31 | 54.11802 | 13.78046 | 1233 ft | 122 kts | 102° |
| 2026-04-13 15:31 | 54.11957 | 13.79296 | 1084 ft | 106 kts | 54° |
| 2026-04-13 15:32 | 54.12508 | 13.80152 | 878 ft | 109 kts | 39° |
| 2026-04-13 15:32 | 54.13121 | 13.80801 | 771 ft | 100 kts | 15° |
| 2026-04-13 15:32 | 54.13778 | 13.80700 | 643 ft | 96 kts | 335° |
| 2026-04-13 15:32 | 54.14292 | 13.79949 | 406 ft | 99 kts | 317° |
| 2026-04-13 15:33 | 54.14778 | 13.79136 | 158 ft | 96 kts | 315° |
| 2026-04-13 15:33 | 54.15235 | 13.78377 | 10 ft | 82 kts | 316° |
| 2026-04-13 15:33 | 54.15641 | 13.77719 | 60 ft | 88 kts | 315° |
| 2026-04-13 15:34 | 54.16678 | 13.75988 | 380 ft | 121 kts | 313° |
| 2026-04-13 15:34 | 54.17091 | 13.74777 | 699 ft | 118 kts | 269° |
| 2026-04-13 15:34 | 54.16695 | 13.73586 | 807 ft | 128 kts | 214° |
| 2026-04-13 15:34 | 54.15900 | 13.72753 | 896 ft | 138 kts | 206° |
| 2026-04-13 15:35 | 54.15023 | 13.72835 | 1063 ft | 139 kts | 133° |
| 2026-04-13 15:35 | 54.14405 | 13.74238 | 1033 ft | 153 kts | 124° |
| 2026-04-13 15:35 | 54.13728 | 13.75704 | 1034 ft | 160 kts | 139° |
| 2026-04-13 15:35 | 54.12919 | 13.77003 | 1040 ft | 159 kts | 136° |
| 2026-04-13 15:36 | 54.12348 | 13.78325 | 938 ft | 118 kts | 102° |
| 2026-04-13 15:36 | 54.12575 | 13.79467 | 828 ft | 106 kts | 45° |
| 2026-04-13 15:36 | 54.13163 | 13.80243 | 667 ft | 107 kts | 30° |
| 2026-04-13 15:36 | 54.13863 | 13.80346 | 522 ft | 103 kts | 339° |
| 2026-04-13 15:37 | 54.14449 | 13.79667 | 247 ft | 100 kts | 316° |
| 2026-04-13 15:37 | 54.14930 | 13.78881 | 72 ft | 92 kts | 316° |
| 2026-04-13 15:37 | 54.15368 | 13.78169 | 10 ft | 80 kts | 316° |
| 2026-04-13 15:37 | 54.15754 | 13.77528 | 28 ft | 91 kts | 316° |
| 2026-04-13 15:38 | 54.16272 | 13.76679 | 265 ft | 115 kts | 314° |
| 2026-04-13 15:38 | 54.16751 | 13.75465 | 507 ft | 134 kts | 277° |
| 2026-04-13 15:38 | 54.16430 | 13.73946 | 654 ft | 153 kts | 222° |
| 2026-04-13 15:38 | 54.15397 | 13.73398 | 719 ft | 169 kts | 170° |
| 2026-04-13 15:39 | 54.14379 | 13.74289 | 742 ft | 164 kts | 148° |
| 2026-04-13 15:39 | 54.13455 | 13.75382 | 673 ft | 154 kts | 144° |
| 2026-04-13 15:39 | 54.12650 | 13.76504 | 623 ft | 140 kts | 130° |
| 2026-04-13 15:39 | 54.12421 | 13.77896 | 598 ft | 118 kts | 75° |
| 2026-04-13 15:40 | 54.12855 | 13.78950 | 515 ft | 106 kts | 43° |
| 2026-04-13 15:40 | 54.13434 | 13.79707 | 411 ft | 102 kts | 30° |
| 2026-04-13 15:40 | 54.14096 | 13.79892 | 364 ft | 95 kts | 346° |
| 2026-04-13 15:40 | 54.14667 | 13.79309 | 176 ft | 96 kts | 316° |
| 2026-04-13 15:41 | 54.15137 | 13.78541 | 18 ft | 90 kts | 315° |
| 2026-04-13 15:41 | 54.15541 | 13.77878 | 10 ft | 71 kts | 315° |
| 2026-04-13 15:41 | 54.15939 | 13.77220 | 80 ft | 91 kts | 313° |
| 2026-04-13 15:41 | 54.16399 | 13.76307 | 294 ft | 114 kts | 301° |
| 2026-04-13 15:42 | 54.16316 | 13.75134 | 616 ft | 116 kts | 206° |
| 2026-04-13 15:42 | 54.15484 | 13.75386 | 761 ft | 134 kts | 153° |
| 2026-04-13 15:42 | 54.14666 | 13.76231 | 1001 ft | 142 kts | 147° |
| 2026-04-13 15:42 | 54.13840 | 13.77202 | 1235 ft | 148 kts | 145° |
| 2026-04-13 15:43 | 54.13010 | 13.78281 | 1368 ft | 153 kts | 142° |
| 2026-04-13 15:43 | 54.12151 | 13.79430 | 1369 ft | 162 kts | 143° |
| 2026-04-13 15:43 | 54.11232 | 13.80620 | 1368 ft | 167 kts | 143° |
| 2026-04-13 15:43 | 54.10301 | 13.81825 | 1366 ft | 171 kts | 143° |
| 2026-04-13 15:44 | 54.09347 | 13.83058 | 1364 ft | 170 kts | 143° |
| 2026-04-13 15:44 | 54.08427 | 13.84250 | 1362 ft | 165 kts | 143° |
| 2026-04-13 15:44 | 54.07523 | 13.85422 | 1363 ft | 161 kts | 143° |
| 2026-04-13 15:44 | 54.06639 | 13.86571 | 1364 ft | 158 kts | 143° |
| 2026-04-13 15:45 | 54.05776 | 13.87691 | 1364 ft | 157 kts | 143° |
| 2026-04-13 15:45 | 54.04906 | 13.88819 | 1364 ft | 156 kts | 143° |
| 2026-04-13 15:45 | 54.04049 | 13.89933 | 1364 ft | 155 kts | 143° |
| 2026-04-13 15:45 | 54.03190 | 13.91049 | 1365 ft | 155 kts | 143° |
| 2026-04-13 15:46 | 54.02337 | 13.92155 | 1365 ft | 155 kts | 143° |
| 2026-04-13 15:46 | 54.01598 | 13.93488 | 1365 ft | 155 kts | 131° |
| 2026-04-13 15:46 | 54.00922 | 13.94882 | 1365 ft | 155 kts | 130° |
| 2026-04-13 15:46 | 54.00238 | 13.96295 | 1365 ft | 155 kts | 130° |
| 2026-04-13 15:47 | 53.99549 | 13.97712 | 1365 ft | 155 kts | 130° |
| 2026-04-13 15:47 | 53.98870 | 13.99132 | 1365 ft | 155 kts | 128° |
| 2026-04-13 15:47 | 53.98231 | 14.00584 | 1365 ft | 155 kts | 127° |
| 2026-04-13 15:47 | 53.97680 | 14.02140 | 1365 ft | 155 kts | 116° |
| 2026-04-13 15:48 | 53.97245 | 14.03828 | 1365 ft | 155 kts | 114° |
| 2026-04-13 15:48 | 53.96835 | 14.05513 | 1365 ft | 155 kts | 113° |
| 2026-04-13 15:48 | 53.96461 | 14.07238 | 1365 ft | 155 kts | 108° |
| 2026-04-13 15:48 | 53.96176 | 14.09002 | 1386 ft | 154 kts | 107° |
| 2026-04-13 15:49 | 53.95734 | 14.10603 | 1458 ft | 149 kts | 127° |
| 2026-04-13 15:49 | 53.94932 | 14.11756 | 1412 ft | 153 kts | 153° |
| 2026-04-13 15:49 | 53.93904 | 14.12311 | 1321 ft | 157 kts | 170° |
| 2026-04-13 15:49 | 53.92884 | 14.12416 | 1135 ft | 137 kts | 181° |
| 2026-04-13 15:50 | 53.91981 | 14.12354 | 925 ft | 122 kts | 183° |
| 2026-04-13 15:50 | 53.91175 | 14.12296 | 758 ft | 112 kts | 181° |
| 2026-04-13 15:50 | 53.90442 | 14.12262 | 674 ft | 103 kts | 184° |
| 2026-04-13 15:50 | 53.89745 | 14.12064 | 563 ft | 101 kts | 192° |
| 2026-04-13 15:51 | 53.89062 | 14.11848 | 441 ft | 97 kts | 187° |
| 2026-04-13 15:51 | 53.88447 | 14.12062 | 289 ft | 90 kts | 140° |
| 2026-04-13 15:51 | 53.88227 | 14.13035 | 166 ft | 91 kts | 107° |
| 2026-04-13 15:51 | 53.88061 | 14.14056 | 72 ft | 84 kts | 106° |
| 2026-04-13 15:52 | 53.87942 | 14.14793 | 66 ft | 53 kts | 105° |
| 2026-04-13 15:52 | 53.87884 | 14.15265 | 74 ft | 16 kts | 130° |
| 2026-04-13 15:52 | 53.87810 | 14.15257 | 74 ft | 2 kts | 195° |
| 2026-04-13 15:52 | 53.87789 | 14.15248 | 74 ft | 3 kts | 194° |
| 2026-04-13 15:53 | 53.87764 | 14.15185 | 73 ft | 11 kts | 274° |
| 2026-04-13 15:53 | 53.87772 | 14.15026 | 69 ft | 14 kts | 273° |
| 2026-04-13 15:53 | 53.87777 | 14.14938 | 68 ft | 3 kts | 275° |